sensor_id;sensor_type;location;lat;lon;timestamp;temperature;humidity
46752;DHT22;32497;48.936;9.270;2022-07-06T00:03:45;18.40;60.50
46752;DHT22;32497;48.936;9.270;2022-07-06T00:08:46;18.30;60.80
46752;DHT22;32497;48.936;9.270;2022-07-06T00:13:48;18.10;60.90
46752;DHT22;32497;48.936;9.270;2022-07-06T00:18:50;17.90;61.60
46752;DHT22;32497;48.936;9.270;2022-07-06T00:23:51;17.90;61.70
46752;DHT22;32497;48.936;9.270;2022-07-06T00:28:53;18.00;61.00
46752;DHT22;32497;48.936;9.270;2022-07-06T00:33:54;18.00;61.60
46752;DHT22;32497;48.936;9.270;2022-07-06T00:38:55;17.90;61.60
46752;DHT22;32497;48.936;9.270;2022-07-06T00:43:58;17.80;62.60
46752;DHT22;32497;48.936;9.270;2022-07-06T00:48:59;17.70;63.40
46752;DHT22;32497;48.936;9.270;2022-07-06T00:54:02;17.50;64.10
46752;DHT22;32497;48.936;9.270;2022-07-06T00:59:05;17.40;64.10
46752;DHT22;32497;48.936;9.270;2022-07-06T01:04:06;17.20;65.00
46752;DHT22;32497;48.936;9.270;2022-07-06T01:09:07;17.20;65.00
46752;DHT22;32497;48.936;9.270;2022-07-06T01:14:10;17.10;65.00
46752;DHT22;32497;48.936;9.270;2022-07-06T01:19:12;17.10;65.50
46752;DHT22;32497;48.936;9.270;2022-07-06T01:24:14;17.00;66.50
46752;DHT22;32497;48.936;9.270;2022-07-06T01:29:15;17.00;65.80
46752;DHT22;32497;48.936;9.270;2022-07-06T01:34:16;16.90;67.00
46752;DHT22;32497;48.936;9.270;2022-07-06T01:39:19;16.80;67.00
46752;DHT22;32497;48.936;9.270;2022-07-06T01:44:20;16.80;67.50
46752;DHT22;32497;48.936;9.270;2022-07-06T01:49:21;16.70;67.10
46752;DHT22;32497;48.936;9.270;2022-07-06T01:54:24;16.60;67.80
46752;DHT22;32497;48.936;9.270;2022-07-06T01:59:25;16.60;68.30
46752;DHT22;32497;48.936;9.270;2022-07-06T02:04:27;16.50;67.50
46752;DHT22;32497;48.936;9.270;2022-07-06T02:09:29;16.30;67.90
46752;DHT22;32497;48.936;9.270;2022-07-06T02:14:30;16.40;68.80
46752;DHT22;32497;48.936;9.270;2022-07-06T02:19:32;16.30;68.90
46752;DHT22;32497;48.936;9.270;2022-07-06T02:24:35;16.20;69.90
46752;DHT22;32497;48.936;9.270;2022-07-06T02:29:36;16.20;69.00
46752;DHT22;32497;48.936;9.270;2022-07-06T02:34:37;16.00;70.70
46752;DHT22;32497;48.936;9.270;2022-07-06T02:39:40;15.90;70.30
46752;DHT22;32497;48.936;9.270;2022-07-06T02:44:45;15.80;70.30
46752;DHT22;32497;48.936;9.270;2022-07-06T02:49:46;15.70;70.50
46752;DHT22;32497;48.936;9.270;2022-07-06T02:54:49;15.60;71.10
46752;DHT22;32497;48.936;9.270;2022-07-06T02:59:50;15.60;71.60
46752;DHT22;32497;48.936;9.270;2022-07-06T03:04:52;15.50;70.20
46752;DHT22;32497;48.936;9.270;2022-07-06T03:09:55;15.50;70.50
46752;DHT22;32497;48.936;9.270;2022-07-06T03:14:56;15.50;71.10
46752;DHT22;32497;48.936;9.270;2022-07-06T03:19:58;15.40;70.70
46752;DHT22;32497;48.936;9.270;2022-07-06T03:25:01;15.20;71.30
46752;DHT22;32497;48.936;9.270;2022-07-06T03:30:04;15.20;71.00
46752;DHT22;32497;48.936;9.270;2022-07-06T03:35:08;15.20;71.10
46752;DHT22;32497;48.936;9.270;2022-07-06T03:40:12;15.20;70.00
46752;DHT22;32497;48.936;9.270;2022-07-06T03:45:13;15.10;70.80
46752;DHT22;32497;48.936;9.270;2022-07-06T03:50:16;15.20;71.10
46752;DHT22;32497;48.936;9.270;2022-07-06T03:55:18;15.20;71.30
46752;DHT22;32497;48.936;9.270;2022-07-06T04:00:25;15.20;71.10
46752;DHT22;32497;48.936;9.270;2022-07-06T04:05:34;15.20;71.40
46752;DHT22;32497;48.936;9.270;2022-07-06T04:10:36;15.20;71.50
46752;DHT22;32497;48.936;9.270;2022-07-06T04:15:38;15.30;71.20
46752;DHT22;32497;48.936;9.270;2022-07-06T04:20:40;15.40;70.70
46752;DHT22;32497;48.936;9.270;2022-07-06T04:25:43;15.40;70.50
46752;DHT22;32497;48.936;9.270;2022-07-06T04:30:45;15.40;71.20
46752;DHT22;32497;48.936;9.270;2022-07-06T04:35:50;15.50;71.00
46752;DHT22;32497;48.936;9.270;2022-07-06T04:40:54;15.50;70.90
46752;DHT22;32497;48.936;9.270;2022-07-06T04:45:56;15.50;70.80
46752;DHT22;32497;48.936;9.270;2022-07-06T04:50:57;15.60;70.80
46752;DHT22;32497;48.936;9.270;2022-07-06T04:56:04;15.60;71.20
46752;DHT22;32497;48.936;9.270;2022-07-06T05:01:07;15.70;70.80
46752;DHT22;32497;48.936;9.270;2022-07-06T05:06:08;16.20;70.20
46752;DHT22;32497;48.936;9.270;2022-07-06T05:11:11;17.10;67.70
46752;DHT22;32497;48.936;9.270;2022-07-06T05:16:13;17.50;66.50
46752;DHT22;32497;48.936;9.270;2022-07-06T05:21:14;17.20;66.20
46752;DHT22;32497;48.936;9.270;2022-07-06T05:26:17;17.10;66.70
46752;DHT22;32497;48.936;9.270;2022-07-06T05:31:19;17.10;66.40
46752;DHT22;32497;48.936;9.270;2022-07-06T05:36:21;17.70;65.50
46752;DHT22;32497;48.936;9.270;2022-07-06T05:41:23;18.20;63.50
46752;DHT22;32497;48.936;9.270;2022-07-06T05:46:25;18.20;63.30
46752;DHT22;32497;48.936;9.270;2022-07-06T05:51:27;18.00;62.50
46752;DHT22;32497;48.936;9.270;2022-07-06T05:56:30;18.20;63.50
46752;DHT22;32497;48.936;9.270;2022-07-06T06:01:31;18.40;62.50
46752;DHT22;32497;48.936;9.270;2022-07-06T06:06:41;18.30;64.30
46752;DHT22;32497;48.936;9.270;2022-07-06T06:11:45;18.80;63.40
46752;DHT22;32497;48.936;9.270;2022-07-06T06:16:46;19.20;61.00
46752;DHT22;32497;48.936;9.270;2022-07-06T06:21:48;20.20;58.40
46752;DHT22;32497;48.936;9.270;2022-07-06T06:26:50;20.40;54.60
46752;DHT22;32497;48.936;9.270;2022-07-06T06:31:51;21.00;53.80
46752;DHT22;32497;48.936;9.270;2022-07-06T06:36:53;22.70;48.30
46752;DHT22;32497;48.936;9.270;2022-07-06T06:41:55;23.00;48.00
46752;DHT22;32497;48.936;9.270;2022-07-06T06:46:56;23.30;48.40
46752;DHT22;32497;48.936;9.270;2022-07-06T06:51:57;23.40;46.00
46752;DHT22;32497;48.936;9.270;2022-07-06T06:57:00;22.70;47.60
46752;DHT22;32497;48.936;9.270;2022-07-06T07:02:01;21.90;47.60
46752;DHT22;32497;48.936;9.270;2022-07-06T07:07:03;21.90;49.70
46752;DHT22;32497;48.936;9.270;2022-07-06T07:12:06;23.20;46.60
46752;DHT22;32497;48.936;9.270;2022-07-06T07:17:07;24.10;42.70
46752;DHT22;32497;48.936;9.270;2022-07-06T07:22:08;24.80;43.10
46752;DHT22;32497;48.936;9.270;2022-07-06T07:27:10;24.50;42.90
46752;DHT22;32497;48.936;9.270;2022-07-06T07:32:11;24.60;43.80
46752;DHT22;32497;48.936;9.270;2022-07-06T07:37:12;24.10;43.10
46752;DHT22;32497;48.936;9.270;2022-07-06T07:42:15;23.70;43.40
46752;DHT22;32497;48.936;9.270;2022-07-06T07:47:16;23.20;45.80
46752;DHT22;32497;48.936;9.270;2022-07-06T07:52:17;23.00;47.50
46752;DHT22;32497;48.936;9.270;2022-07-06T07:57:19;22.80;46.90
46752;DHT22;32497;48.936;9.270;2022-07-06T08:02:20;22.40;48.40
46752;DHT22;32497;48.936;9.270;2022-07-06T08:07:21;23.00;48.30
46752;DHT22;32497;48.936;9.270;2022-07-06T08:12:24;23.10;46.20
46752;DHT22;32497;48.936;9.270;2022-07-06T08:17:25;22.80;47.60
46752;DHT22;32497;48.936;9.270;2022-07-06T08:22:26;23.00;49.40
46752;DHT22;32497;48.936;9.270;2022-07-06T08:27:29;23.60;47.40
46752;DHT22;32497;48.936;9.270;2022-07-06T08:32:33;23.30;47.30
46752;DHT22;32497;48.936;9.270;2022-07-06T08:37:37;23.70;45.40
46752;DHT22;32497;48.936;9.270;2022-07-06T08:42:39;23.20;47.90
46752;DHT22;32497;48.936;9.270;2022-07-06T08:47:41;24.40;45.60
46752;DHT22;32497;48.936;9.270;2022-07-06T08:52:43;23.70;46.50
46752;DHT22;32497;48.936;9.270;2022-07-06T08:57:46;23.90;47.20
46752;DHT22;32497;48.936;9.270;2022-07-06T09:02:48;23.30;46.30
46752;DHT22;32497;48.936;9.270;2022-07-06T09:07:50;23.20;46.60
46752;DHT22;32497;48.936;9.270;2022-07-06T09:12:52;23.90;44.80
46752;DHT22;32497;48.936;9.270;2022-07-06T09:17:55;23.80;46.90
46752;DHT22;32497;48.936;9.270;2022-07-06T09:23:00;23.90;46.10
46752;DHT22;32497;48.936;9.270;2022-07-06T09:28:03;24.00;45.60
46752;DHT22;32497;48.936;9.270;2022-07-06T09:33:04;24.20;44.90
46752;DHT22;32497;48.936;9.270;2022-07-06T09:38:09;24.50;45.00
46752;DHT22;32497;48.936;9.270;2022-07-06T09:43:14;24.80;43.00
46752;DHT22;32497;48.936;9.270;2022-07-06T09:48:17;25.40;43.40
46752;DHT22;32497;48.936;9.270;2022-07-06T09:53:18;24.90;44.20
46752;DHT22;32497;48.936;9.270;2022-07-06T09:58:22;25.20;42.50
46752;DHT22;32497;48.936;9.270;2022-07-06T10:03:24;25.30;42.90
46752;DHT22;32497;48.936;9.270;2022-07-06T10:08:26;24.80;43.00
46752;DHT22;32497;48.936;9.270;2022-07-06T10:13:30;25.10;43.00
46752;DHT22;32497;48.936;9.270;2022-07-06T10:18:32;25.60;42.00
46752;DHT22;32497;48.936;9.270;2022-07-06T10:23:34;25.40;41.80
46752;DHT22;32497;48.936;9.270;2022-07-06T10:28:38;25.10;42.70
46752;DHT22;32497;48.936;9.270;2022-07-06T10:33:40;25.30;41.40
46752;DHT22;32497;48.936;9.270;2022-07-06T10:38:48;25.30;40.90
46752;DHT22;32497;48.936;9.270;2022-07-06T10:43:50;24.50;42.80
46752;DHT22;32497;48.936;9.270;2022-07-06T10:48:51;25.10;41.20
46752;DHT22;32497;48.936;9.270;2022-07-06T10:53:56;25.10;43.20
46752;DHT22;32497;48.936;9.270;2022-07-06T10:59:02;24.20;45.30
46752;DHT22;32497;48.936;9.270;2022-07-06T11:04:07;24.40;47.10
46752;DHT22;32497;48.936;9.270;2022-07-06T11:09:09;25.20;43.90
46752;DHT22;32497;48.936;9.270;2022-07-06T11:14:14;24.50;44.90
46752;DHT22;32497;48.936;9.270;2022-07-06T11:19:17;24.10;43.60
46752;DHT22;32497;48.936;9.270;2022-07-06T11:24:21;24.20;44.90
46752;DHT22;32497;48.936;9.270;2022-07-06T11:29:24;24.50;43.40
46752;DHT22;32497;48.936;9.270;2022-07-06T11:34:27;24.80;43.90
46752;DHT22;32497;48.936;9.270;2022-07-06T11:39:29;24.90;43.50
46752;DHT22;32497;48.936;9.270;2022-07-06T11:44:33;25.00;42.40
46752;DHT22;32497;48.936;9.270;2022-07-06T11:49:35;25.50;43.90
46752;DHT22;32497;48.936;9.270;2022-07-06T11:54:37;26.00;41.40
46752;DHT22;32497;48.936;9.270;2022-07-06T11:59:41;25.10;44.50
46752;DHT22;32497;48.936;9.270;2022-07-06T12:04:44;25.80;40.80
46752;DHT22;32497;48.936;9.270;2022-07-06T12:09:46;24.80;43.80
46752;DHT22;32497;48.936;9.270;2022-07-06T12:14:52;25.10;42.30
46752;DHT22;32497;48.936;9.270;2022-07-06T12:19:54;24.70;44.20
46752;DHT22;32497;48.936;9.270;2022-07-06T12:24:55;25.00;45.50
46752;DHT22;32497;48.936;9.270;2022-07-06T12:30:08;26.10;41.70
46752;DHT22;32497;48.936;9.270;2022-07-06T12:35:10;25.90;40.80
46752;DHT22;32497;48.936;9.270;2022-07-06T12:40:12;24.70;42.30
46752;DHT22;32497;48.936;9.270;2022-07-06T12:45:16;24.70;44.50
46752;DHT22;32497;48.936;9.270;2022-07-06T12:50:17;24.90;42.80
46752;DHT22;32497;48.936;9.270;2022-07-06T12:55:25;24.10;42.80
46752;DHT22;32497;48.936;9.270;2022-07-06T13:00:28;23.60;43.20
46752;DHT22;32497;48.936;9.270;2022-07-06T13:05:29;24.00;45.00
46752;DHT22;32497;48.936;9.270;2022-07-06T13:10:30;24.20;42.90
46752;DHT22;32497;48.936;9.270;2022-07-06T13:15:33;24.00;45.10
46752;DHT22;32497;48.936;9.270;2022-07-06T13:20:34;23.60;43.70
46752;DHT22;32497;48.936;9.270;2022-07-06T13:25:35;23.80;43.90
46752;DHT22;32497;48.936;9.270;2022-07-06T13:30:37;25.00;41.30
46752;DHT22;32497;48.936;9.270;2022-07-06T13:35:38;24.20;41.80
46752;DHT22;32497;48.936;9.270;2022-07-06T13:40:39;24.90;39.90
46752;DHT22;32497;48.936;9.270;2022-07-06T13:45:41;25.50;40.50
46752;DHT22;32497;48.936;9.270;2022-07-06T13:50:42;25.20;39.50
46752;DHT22;32497;48.936;9.270;2022-07-06T13:55:43;26.20;39.60
46752;DHT22;32497;48.936;9.270;2022-07-06T14:00:47;26.70;36.60
46752;DHT22;32497;48.936;9.270;2022-07-06T14:05:48;25.90;36.60
46752;DHT22;32497;48.936;9.270;2022-07-06T14:10:49;26.00;38.00
46752;DHT22;32497;48.936;9.270;2022-07-06T14:15:52;26.10;38.00
46752;DHT22;32497;48.936;9.270;2022-07-06T14:20:53;26.40;37.30
46752;DHT22;32497;48.936;9.270;2022-07-06T14:25:55;26.60;37.30
46752;DHT22;32497;48.936;9.270;2022-07-06T14:30:57;26.10;36.70
46752;DHT22;32497;48.936;9.270;2022-07-06T14:35:59;26.50;36.90
46752;DHT22;32497;48.936;9.270;2022-07-06T14:41:00;27.20;36.60
46752;DHT22;32497;48.936;9.270;2022-07-06T14:46:02;27.60;33.50
46752;DHT22;32497;48.936;9.270;2022-07-06T14:51:04;26.60;35.70
46752;DHT22;32497;48.936;9.270;2022-07-06T14:56:05;26.70;36.30
46752;DHT22;32497;48.936;9.270;2022-07-06T15:01:07;26.70;34.70
46752;DHT22;32497;48.936;9.270;2022-07-06T15:06:08;26.30;35.20
46752;DHT22;32497;48.936;9.270;2022-07-06T15:11:09;27.50;34.30
46752;DHT22;32497;48.936;9.270;2022-07-06T15:16:12;26.50;33.90
46752;DHT22;32497;48.936;9.270;2022-07-06T15:21:13;26.10;35.80
46752;DHT22;32497;48.936;9.270;2022-07-06T15:26:14;26.20;37.60
46752;DHT22;32497;48.936;9.270;2022-07-06T15:31:17;26.80;35.40
46752;DHT22;32497;48.936;9.270;2022-07-06T15:36:18;27.00;33.10
46752;DHT22;32497;48.936;9.270;2022-07-06T15:41:19;26.70;33.50
46752;DHT22;32497;48.936;9.270;2022-07-06T15:46:23;26.20;34.20
46752;DHT22;32497;48.936;9.270;2022-07-06T15:51:24;25.10;34.30
46752;DHT22;32497;48.936;9.270;2022-07-06T15:56:25;24.90;37.80
46752;DHT22;32497;48.936;9.270;2022-07-06T16:01:28;25.10;36.00
46752;DHT22;32497;48.936;9.270;2022-07-06T16:06:29;24.60;36.00
46752;DHT22;32497;48.936;9.270;2022-07-06T16:11:30;24.50;38.00
46752;DHT22;32497;48.936;9.270;2022-07-06T16:16:32;24.30;36.70
46752;DHT22;32497;48.936;9.270;2022-07-06T16:21:33;23.80;38.30
46752;DHT22;32497;48.936;9.270;2022-07-06T16:26:34;23.40;37.00
46752;DHT22;32497;48.936;9.270;2022-07-06T16:31:37;23.30;37.50
46752;DHT22;32497;48.936;9.270;2022-07-06T16:36:38;23.20;38.30
46752;DHT22;32497;48.936;9.270;2022-07-06T16:41:39;23.30;39.10
46752;DHT22;32497;48.936;9.270;2022-07-06T16:46:41;23.20;39.00
46752;DHT22;32497;48.936;9.270;2022-07-06T16:51:42;22.90;36.50
46752;DHT22;32497;48.936;9.270;2022-07-06T16:56:43;22.50;38.50
46752;DHT22;32497;48.936;9.270;2022-07-06T17:01:46;22.30;39.50
46752;DHT22;32497;48.936;9.270;2022-07-06T17:06:47;22.50;39.70
46752;DHT22;32497;48.936;9.270;2022-07-06T17:11:48;22.50;38.20
46752;DHT22;32497;48.936;9.270;2022-07-06T17:16:50;22.60;39.50
46752;DHT22;32497;48.936;9.270;2022-07-06T17:21:51;22.70;39.70
46752;DHT22;32497;48.936;9.270;2022-07-06T17:26:52;22.40;38.80
46752;DHT22;32497;48.936;9.270;2022-07-06T17:31:55;22.20;38.50
46752;DHT22;32497;48.936;9.270;2022-07-06T17:36:56;22.10;40.00
46752;DHT22;32497;48.936;9.270;2022-07-06T17:41:57;22.30;38.50
46752;DHT22;32497;48.936;9.270;2022-07-06T17:47:00;22.10;37.30
46752;DHT22;32497;48.936;9.270;2022-07-06T17:52:01;21.90;38.00
46752;DHT22;32497;48.936;9.270;2022-07-06T17:57:03;21.90;38.20
46752;DHT22;32497;48.936;9.270;2022-07-06T18:02:06;21.70;38.90
46752;DHT22;32497;48.936;9.270;2022-07-06T18:07:07;21.60;40.10
46752;DHT22;32497;48.936;9.270;2022-07-06T18:12:09;21.60;38.60
46752;DHT22;32497;48.936;9.270;2022-07-06T18:17:11;21.50;37.90
46752;DHT22;32497;48.936;9.270;2022-07-06T18:22:12;21.50;40.50
46752;DHT22;32497;48.936;9.270;2022-07-06T18:27:13;21.40;39.00
46752;DHT22;32497;48.936;9.270;2022-07-06T18:32:16;21.30;40.80
46752;DHT22;32497;48.936;9.270;2022-07-06T18:37:17;21.30;39.10
46752;DHT22;32497;48.936;9.270;2022-07-06T18:42:18;21.10;40.50
46752;DHT22;32497;48.936;9.270;2022-07-06T18:47:20;20.90;39.80
46752;DHT22;32497;48.936;9.270;2022-07-06T18:52:21;20.70;40.70
46752;DHT22;32497;48.936;9.270;2022-07-06T18:57:22;20.60;41.50
46752;DHT22;32497;48.936;9.270;2022-07-06T19:02:25;20.60;41.60
46752;DHT22;32497;48.936;9.270;2022-07-06T19:07:27;20.50;42.20
46752;DHT22;32497;48.936;9.270;2022-07-06T19:12:28;20.20;40.90
46752;DHT22;32497;48.936;9.270;2022-07-06T19:17:30;20.00;42.00
46752;DHT22;32497;48.936;9.270;2022-07-06T19:22:31;19.80;42.50
46752;DHT22;32497;48.936;9.270;2022-07-06T19:27:32;19.80;42.70
46752;DHT22;32497;48.936;9.270;2022-07-06T19:32:35;19.70;43.20
46752;DHT22;32497;48.936;9.270;2022-07-06T19:37:36;19.30;44.60
46752;DHT22;32497;48.936;9.270;2022-07-06T19:42:37;19.20;44.80
46752;DHT22;32497;48.936;9.270;2022-07-06T19:47:39;19.10;46.30
46752;DHT22;32497;48.936;9.270;2022-07-06T19:52:41;19.10;46.30
46752;DHT22;32497;48.936;9.270;2022-07-06T19:57:42;18.90;46.00
46752;DHT22;32497;48.936;9.270;2022-07-06T20:02:45;18.70;46.60
46752;DHT22;32497;48.936;9.270;2022-07-06T20:07:46;18.60;47.40
46752;DHT22;32497;48.936;9.270;2022-07-06T20:12:47;18.40;48.20
46752;DHT22;32497;48.936;9.270;2022-07-06T20:17:49;18.30;47.90
46752;DHT22;32497;48.936;9.270;2022-07-06T20:22:50;18.20;49.10
46752;DHT22;32497;48.936;9.270;2022-07-06T20:27:51;18.20;49.80
46752;DHT22;32497;48.936;9.270;2022-07-06T20:32:54;18.20;49.50
46752;DHT22;32497;48.936;9.270;2022-07-06T20:37:56;18.10;49.80
46752;DHT22;32497;48.936;9.270;2022-07-06T20:42:57;18.10;51.00
46752;DHT22;32497;48.936;9.270;2022-07-06T20:47:59;17.90;51.10
46752;DHT22;32497;48.936;9.270;2022-07-06T20:53:01;17.70;52.50
46752;DHT22;32497;48.936;9.270;2022-07-06T20:58:02;17.70;52.50
46752;DHT22;32497;48.936;9.270;2022-07-06T21:03:05;17.50;52.90
46752;DHT22;32497;48.936;9.270;2022-07-06T21:08:06;17.50;53.20
46752;DHT22;32497;48.936;9.270;2022-07-06T21:13:09;17.30;53.50
46752;DHT22;32497;48.936;9.270;2022-07-06T21:18:11;17.30;54.20
46752;DHT22;32497;48.936;9.270;2022-07-06T21:23:12;17.10;54.90
46752;DHT22;32497;48.936;9.270;2022-07-06T21:28:14;16.90;56.10
46752;DHT22;32497;48.936;9.270;2022-07-06T21:33:16;16.70;56.60
46752;DHT22;32497;48.936;9.270;2022-07-06T21:38:18;16.70;55.80
46752;DHT22;32497;48.936;9.270;2022-07-06T21:43:19;16.50;56.60
46752;DHT22;32497;48.936;9.270;2022-07-06T21:48:22;16.40;57.70
46752;DHT22;32497;48.936;9.270;2022-07-06T21:53:23;16.30;58.00
46752;DHT22;32497;48.936;9.270;2022-07-06T21:58:24;16.20;58.70
46752;DHT22;32497;48.936;9.270;2022-07-06T22:03:26;16.20;58.50
46752;DHT22;32497;48.936;9.270;2022-07-06T22:08:27;16.10;58.60
46752;DHT22;32497;48.936;9.270;2022-07-06T22:13:28;15.90;59.50
46752;DHT22;32497;48.936;9.270;2022-07-06T22:18:31;15.70;58.30
46752;DHT22;32497;48.936;9.270;2022-07-06T22:23:32;15.80;59.40
46752;DHT22;32497;48.936;9.270;2022-07-06T22:28:33;15.70;59.90
46752;DHT22;32497;48.936;9.270;2022-07-06T22:33:36;15.70;60.10
46752;DHT22;32497;48.936;9.270;2022-07-06T22:38:37;15.50;60.40
46752;DHT22;32497;48.936;9.270;2022-07-06T22:43:38;15.40;60.90
46752;DHT22;32497;48.936;9.270;2022-07-06T22:48:41;15.30;61.60
46752;DHT22;32497;48.936;9.270;2022-07-06T22:53:42;15.20;61.50
46752;DHT22;32497;48.936;9.270;2022-07-06T22:58:43;15.20;63.00
46752;DHT22;32497;48.936;9.270;2022-07-06T23:03:47;15.20;61.90
46752;DHT22;32497;48.936;9.270;2022-07-06T23:08:49;15.40;61.90
46752;DHT22;32497;48.936;9.270;2022-07-06T23:13:50;15.40;62.00
46752;DHT22;32497;48.936;9.270;2022-07-06T23:18:52;15.40;61.80
46752;DHT22;32497;48.936;9.270;2022-07-06T23:23:53;15.40;61.80
46752;DHT22;32497;48.936;9.270;2022-07-06T23:28:54;15.60;60.60
46752;DHT22;32497;48.936;9.270;2022-07-06T23:33:57;15.50;60.80
46752;DHT22;32497;48.936;9.270;2022-07-06T23:38:58;15.40;62.10
46752;DHT22;32497;48.936;9.270;2022-07-06T23:44:00;15.40;61.80
46752;DHT22;32497;48.936;9.270;2022-07-06T23:49:02;15.30;61.80
46752;DHT22;32497;48.936;9.270;2022-07-06T23:54:03;15.30;62.30
46752;DHT22;32497;48.936;9.270;2022-07-06T23:59:04;15.30;62.00
